Time;durP1;ratioP1;P1;durP2;ratioP2;P2;SDS_P1;SDS_P2;PMS_P1;PMS_P2;Temp;Humidity;BMP_temperature;BMP_pressure;BME280_temperature;BME280_humidity;BME280_pressure;Samples;Min_cycle;Max_cycle;Signal;HPM_P1;HPM_P2
2023/08/30 00:00:13;;;;;;;9.18;7.20;;;18.20;96.40;;;;;;4995190;28;20018;-71
2023/08/30 00:02:39;;;;;;;8.25;6.68;;;18.20;96.40;;;;;;4994522;28;20025;-71
2023/08/30 00:05:04;;;;;;;8.45;7.32;;;18.20;96.40;;;;;;4995036;28;20498;-71
2023/08/30 00:07:31;;;;;;;9.45;7.03;;;18.20;96.40;;;;;;4995111;28;20018;-70
2023/08/30 00:09:58;;;;;;;11.70;7.03;;;18.20;96.40;;;;;;4995002;28;20023;-70
2023/08/30 00:12:24;;;;;;;8.63;6.85;;;18.20;96.30;;;;;;4994983;28;20058;-70
2023/08/30 00:14:50;;;;;;;8.80;7.45;;;18.10;96.30;;;;;;4994946;28;20058;-70
2023/08/30 00:17:15;;;;;;;9.82;6.80;;;18.10;96.40;;;;;;4994825;28;20065;-71
2023/08/30 00:19:41;;;;;;;10.23;6.80;;;18.10;96.40;;;;;;4994502;28;20045;-71
2023/08/30 00:22:09;;;;;;;9.15;6.65;;;18.10;96.30;;;;;;4994865;28;20027;-70
2023/08/30 00:24:35;;;;;;;9.77;6.18;;;18.10;96.30;;;;;;4994686;28;20027;-70
2023/08/30 00:27:02;;;;;;;8.10;5.82;;;18.10;96.30;;;;;;4994835;28;20030;-71
2023/08/30 00:29:28;;;;;;;7.97;6.30;;;18.10;96.40;;;;;;4994602;28;20468;-71
2023/08/30 00:31:54;;;;;;;9.13;6.50;;;18.10;96.40;;;;;;4994349;28;20501;-70
2023/08/30 00:34:20;;;;;;;8.98;6.10;;;18.10;96.50;;;;;;4994526;28;20594;-70
2023/08/30 00:36:46;;;;;;;9.80;5.80;;;18.10;96.50;;;;;;4993305;28;20108;-71
2023/08/30 00:39:12;;;;;;;7.90;6.30;;;18.00;96.60;;;;;;4994537;28;20030;-70
2023/08/30 00:41:38;;;;;;;9.48;6.38;;;18.00;96.60;;;;;;4994414;28;20044;-69
2023/08/30 00:44:04;;;;;;;10.40;6.30;;;18.00;96.70;;;;;;4994483;28;20037;-70
2023/08/30 00:46:31;;;;;;;7.43;6.15;;;18.00;96.70;;;;;;4993803;28;20191;-70
2023/08/30 00:48:58;;;;;;;7.25;5.82;;;18.10;96.80;;;;;;4994526;28;20031;-70
2023/08/30 00:51:24;;;;;;;6.30;5.60;;;18.00;96.80;;;;;;4994139;28;20463;-70
2023/08/30 00:53:50;;;;;;;10.35;6.03;;;18.00;96.90;;;;;;4993117;28;20054;-70
2023/08/30 00:56:16;;;;;;;7.25;5.80;;;18.00;97.00;;;;;;4994354;28;20023;-69
2023/08/30 00:58:42;;;;;;;6.85;6.07;;;17.90;97.00;;;;;;4994168;28;20384;-69
2023/08/30 01:01:08;;;;;;;7.85;5.93;;;17.90;97.10;;;;;;4992578;28;20034;-70
2023/08/30 01:03:34;;;;;;;7.53;6.30;;;17.90;97.20;;;;;;4994085;28;20084;-71
2023/08/30 01:06:01;;;;;;;8.00;5.97;;;17.90;97.20;;;;;;4994124;28;20049;-70
2023/08/30 01:08:27;;;;;;;6.43;5.82;;;17.90;97.20;;;;;;4994021;28;20025;-70
2023/08/30 01:11:38;;;;;;;7.00;5.68;;;17.90;97.20;;;;;;4993950;28;20042;-70
2023/08/30 01:14:08;;;;;;;7.18;5.70;;;17.90;97.30;;;;;;4993591;28;20029;-71
2023/08/30 01:16:35;;;;;;;7.25;6.10;;;17.80;97.40;;;;;;4993323;28;20030;-71
2023/08/30 01:19:14;;;;;;;7.40;6.28;;;17.90;97.50;;;;;;4993878;28;20447;-69
2023/08/30 01:22:05;;;;;;;6.85;5.70;;;17.80;97.50;;;;;;4993775;28;20189;-71
2023/08/30 01:24:49;;;;;;;8.32;5.72;;;17.90;97.60;;;;;;4993694;28;20357;-70
2023/08/30 01:27:17;;;;;;;6.05;5.20;;;17.80;97.50;;;;;;4993700;28;20472;-71
2023/08/30 01:29:45;;;;;;;6.18;5.55;;;17.80;97.60;;;;;;4993690;28;20019;-69
2023/08/30 01:32:12;;;;;;;7.38;6.03;;;17.90;97.50;;;;;;4992340;28;20023;-70
2023/08/30 01:34:39;;;;;;;6.55;5.32;;;17.80;97.40;;;;;;4993503;28;20022;-71
2023/08/30 01:37:07;;;;;;;6.57;5.40;;;17.80;97.50;;;;;;4993697;28;20026;-69
2023/08/30 01:39:34;;;;;;;7.35;5.25;;;17.80;97.40;;;;;;4992634;28;20030;-69
2023/08/30 01:42:01;;;;;;;6.07;5.03;;;17.80;97.40;;;;;;4993776;28;20073;-69
2023/08/30 01:44:29;;;;;;;6.38;5.13;;;17.80;97.40;;;;;;4993324;28;20026;-73
2023/08/30 01:46:56;;;;;;;7.60;5.82;;;17.70;97.40;;;;;;4993564;28;20041;-70
2023/08/30 01:49:22;;;;;;;6.65;5.53;;;17.80;97.30;;;;;;4993690;28;20033;-71
2023/08/30 01:51:50;;;;;;;10.20;6.00;;;17.80;97.40;;;;;;4993575;28;20387;-72
2023/08/30 01:54:18;;;;;;;6.78;5.07;;;17.70;97.30;;;;;;4993670;28;20022;-71
2023/08/30 01:56:45;;;;;;;7.07;5.90;;;17.70;97.40;;;;;;4993429;28;20031;-71
2023/08/30 01:59:11;;;;;;;7.28;5.05;;;17.70;97.40;;;;;;4993348;28;20011;-71
2023/08/30 02:01:36;;;;;;;7.60;4.80;;;17.70;97.50;;;;;;4993480;28;20180;-71
2023/08/30 02:04:02;;;;;;;6.25;4.93;;;17.70;97.50;;;;;;4993643;28;20141;-71
2023/08/30 02:06:48;;;;;;;7.40;5.47;;;17.70;97.50;;;;;;4993404;28;20375;-70
2023/08/30 02:09:49;;;;;;;6.15;5.20;;;17.70;97.40;;;;;;4993589;28;20026;-70
2023/08/30 02:12:17;;;;;;;5.72;5.13;;;17.70;97.50;;;;;;4993548;28;20041;-71
2023/08/30 02:14:48;;;;;;;10.13;5.75;;;17.60;97.40;;;;;;4993038;28;20026;-72
2023/08/30 02:17:15;;;;;;;8.05;5.47;;;17.60;97.40;;;;;;4993372;28;20033;-72
2023/08/30 02:19:42;;;;;;;9.75;5.30;;;17.60;97.50;;;;;;4993240;28;20042;-71
2023/08/30 02:22:08;;;;;;;8.90;5.80;;;17.60;97.60;;;;;;4993379;28;20014;-72
2023/08/30 02:24:33;;;;;;;5.88;5.28;;;17.60;97.60;;;;;;4993315;28;20105;-72
2023/08/30 02:26:59;;;;;;;6.70;5.15;;;17.60;97.70;;;;;;4995795;28;20018;-71
2023/08/30 02:29:25;;;;;;;9.15;5.80;;;17.60;97.70;;;;;;4996914;28;20030;-71
2023/08/30 02:31:51;;;;;;;6.95;5.22;;;17.50;97.80;;;;;;4995667;28;20506;-72
2023/08/30 02:34:16;;;;;;;7.22;5.38;;;17.60;97.80;;;;;;4996676;28;20031;-71
2023/08/30 02:36:42;;;;;;;9.68;5.68;;;17.50;97.90;;;;;;4996916;28;20029;-70
2023/08/30 02:39:07;;;;;;;11.77;5.85;;;17.50;98.00;;;;;;4996843;28;20031;-72
2023/08/30 02:41:34;;;;;;;6.70;5.28;;;17.50;98.00;;;;;;4996754;28;20029;-72
2023/08/30 02:43:59;;;;;;;6.82;5.47;;;17.60;98.10;;;;;;4996543;28;20054;-71
2023/08/30 02:46:25;;;;;;;11.00;5.75;;;17.50;98.10;;;;;;4996623;28;20411;-72
2023/08/30 02:48:51;;;;;;;8.48;5.05;;;17.50;98.20;;;;;;4996457;28;20049;-72
2023/08/30 02:51:17;;;;;;;6.60;4.95;;;17.50;98.30;;;;;;4996662;28;20038;-72
2023/08/30 02:53:42;;;;;;;6.15;4.85;;;17.50;98.40;;;;;;4996425;28;20026;-71
2023/08/30 02:56:08;;;;;;;9.75;5.55;;;17.50;98.40;;;;;;4996355;28;20081;-71
2023/08/30 02:58:33;;;;;;;8.45;5.70;;;17.50;98.40;;;;;;4996207;28;20021;-71
2023/08/30 03:01:00;;;;;;;9.57;5.25;;;17.50;98.80;;;;;;4996418;28;20026;-71
2023/08/30 03:03:26;;;;;;;7.82;5.53;;;17.50;98.50;;;;;;4996203;28;20077;-70
2023/08/30 03:05:52;;;;;;;8.25;5.50;;;17.50;98.50;;;;;;4996359;28;20030;-71
2023/08/30 03:08:17;;;;;;;7.30;5.53;;;17.50;98.60;;;;;;4996225;28;20376;-71
2023/08/30 03:10:43;;;;;;;6.68;5.07;;;17.50;98.70;;;;;;4995786;28;20034;-71
2023/08/30 03:13:09;;;;;;;8.65;5.45;;;17.50;98.70;;;;;;4996034;28;20014;-71
2023/08/30 03:15:34;;;;;;;6.03;5.25;;;17.50;98.80;;;;;;4994851;28;20033;-72
2023/08/30 03:18:00;;;;;;;8.00;5.10;;;17.50;98.80;;;;;;4994158;28;20029;-72
2023/08/30 03:20:28;;;;;;;5.32;4.82;;;17.50;98.90;;;;;;4995814;28;20478;-70
2023/08/30 03:22:56;;;;;;;6.65;5.30;;;17.50;98.90;;;;;;4994720;28;20464;-70
2023/08/30 03:25:21;;;;;;;6.85;4.97;;;17.50;98.90;;;;;;4995472;28;20026;-71
2023/08/30 03:27:47;;;;;;;6.53;4.95;;;17.50;98.90;;;;;;4995956;28;20068;-71
2023/08/30 03:30:13;;;;;;;5.78;4.43;;;17.50;99.00;;;;;;4995761;28;20022;-70
2023/08/30 03:32:38;;;;;;;6.75;5.35;;;17.50;99.10;;;;;;4995807;28;20583;-71
2023/08/30 03:35:04;;;;;;;7.10;5.15;;;17.50;99.20;;;;;;4995839;28;20026;-70
2023/08/30 03:37:30;;;;;;;8.95;5.88;;;17.50;99.20;;;;;;4995173;28;20487;-71
2023/08/30 03:39:56;;;;;;;7.63;5.40;;;17.50;99.20;;;;;;4995239;28;20061;-71
2023/08/30 03:42:21;;;;;;;8.75;5.45;;;17.50;99.40;;;;;;4995702;28;20030;-72
2023/08/30 03:44:47;;;;;;;5.50;5.00;;;17.50;99.40;;;;;;4995310;28;20034;-71
2023/08/30 03:47:12;;;;;;;7.22;5.50;;;17.40;99.50;;;;;;4995438;28;20033;-72
2023/08/30 03:49:38;;;;;;;6.05;5.03;;;17.50;99.60;;;;;;4995274;28;20053;-71
2023/08/30 03:52:04;;;;;;;7.63;5.65;;;17.40;99.60;;;;;;4995652;28;20030;-72
2023/08/30 03:54:29;;;;;;;6.45;5.30;;;17.50;99.60;;;;;;4994978;28;20395;-71
2023/08/30 03:56:55;;;;;;;6.60;5.45;;;17.50;99.70;;;;;;4995398;28;20571;-70
2023/08/30 03:59:22;;;;;;;7.43;5.57;;;17.50;99.70;;;;;;4995370;28;20114;-71
2023/08/30 04:01:48;;;;;;;6.72;5.65;;;17.50;99.80;;;;;;4995317;28;20023;-71
2023/08/30 04:04:14;;;;;;;6.60;5.60;;;17.50;99.90;;;;;;4995112;28;20076;-71
2023/08/30 04:06:40;;;;;;;8.27;5.70;;;17.50;99.90;;;;;;4995231;28;20030;-71
2023/08/30 04:09:06;;;;;;;9.52;5.50;;;17.50;99.90;;;;;;4994724;28;20467;-72
2023/08/30 04:11:32;;;;;;;6.05;5.45;;;17.50;99.90;;;;;;4995362;28;20039;-71
2023/08/30 04:13:58;;;;;;;6.13;5.13;;;17.50;99.90;;;;;;4994909;28;20022;-72
2023/08/30 04:16:23;;;;;;;9.75;5.22;;;17.50;99.90;;;;;;4994887;28;20031;-71
2023/08/30 04:18:49;;;;;;;8.52;6.40;;;17.50;99.90;;;;;;4994778;28;20042;-72
2023/08/30 04:21:14;;;;;;;7.35;5.55;;;17.50;99.90;;;;;;4994871;28;20037;-72
2023/08/30 04:23:40;;;;;;;8.35;5.90;;;17.50;99.90;;;;;;4994631;28;20036;-71
2023/08/30 04:26:06;;;;;;;7.97;5.25;;;17.50;99.90;;;;;;4994665;28;20030;-71
2023/08/30 04:28:31;;;;;;;7.82;6.47;;;17.50;99.90;;;;;;4994857;28;20030;-70
2023/08/30 04:30:57;;;;;;;8.55;5.75;;;17.40;99.90;;;;;;4994625;28;20097;-70
2023/08/30 04:33:24;;;;;;;5.70;5.10;;;17.40;99.90;;;;;;4994686;28;20065;-72
2023/08/30 04:35:53;;;;;;;8.63;5.45;;;17.50;99.90;;;;;;4994520;28;20033;-71
2023/08/30 04:38:19;;;;;;;7.38;4.15;;;17.50;99.90;;;;;;4994390;28;20526;-71
2023/08/30 04:40:46;;;;;;;8.57;6.25;;;17.60;99.90;;;;;;4994327;28;20114;-72
2023/08/30 04:43:11;;;;;;;10.75;6.10;;;17.50;99.90;;;;;;4994466;28;20010;-72
2023/08/30 04:45:37;;;;;;;11.10;6.25;;;17.50;99.90;;;;;;4994426;28;20574;-72
2023/08/30 04:48:03;;;;;;;7.95;5.82;;;17.50;99.90;;;;;;4994372;28;20510;-72
2023/08/30 04:50:31;;;;;;;11.52;6.90;;;17.50;99.90;;;;;;4994251;28;20077;-71
2023/08/30 04:52:56;;;;;;;8.38;5.88;;;17.40;99.90;;;;;;4993823;28;20065;-72
2023/08/30 04:55:24;;;;;;;10.65;3.60;;;17.40;99.90;;;;;;4992154;28;20022;-72
2023/08/30 04:57:50;;;;;;;7.15;4.78;;;17.50;99.90;;;;;;4992143;28;20042;-72
2023/08/30 05:00:17;;;;;;;4.80;4.07;;;17.60;99.90;;;;;;4989107;28;20031;-71
2023/08/30 05:02:43;;;;;;;6.80;4.32;;;17.60;99.90;;;;;;4991995;28;20026;-72
2023/08/30 05:05:09;;;;;;;8.07;5.25;;;17.60;99.90;;;;;;4997850;28;20041;-72
2023/08/30 05:07:35;;;;;;;5.97;4.30;;;17.60;99.90;;;;;;4991295;28;20483;-71
2023/08/30 05:10:01;;;;;;;8.73;5.55;;;17.60;99.90;;;;;;4993559;28;20053;-72
2023/08/30 05:12:27;;;;;;;6.40;3.40;;;17.70;99.90;;;;;;4994067;28;20025;-68
2023/08/30 05:14:53;;;;;;;6.72;4.93;;;17.70;99.90;;;;;;4993936;28;20026;-72
2023/08/30 05:17:18;;;;;;;9.10;4.78;;;17.70;99.90;;;;;;4992518;28;20034;-72
2023/08/30 05:19:44;;;;;;;5.50;4.60;;;17.70;99.90;;;;;;4993113;28;20039;-72
2023/08/30 05:22:10;;;;;;;5.35;4.55;;;17.70;99.90;;;;;;4997121;28;20101;-71
2023/08/30 05:24:35;;;;;;;5.22;4.72;;;17.70;99.90;;;;;;5013012;28;20108;-72
2023/08/30 05:27:02;;;;;;;5.57;4.05;;;17.60;99.90;;;;;;5013190;28;20062;-72
2023/08/30 05:29:27;;;;;;;6.68;4.78;;;17.70;99.90;;;;;;5013239;28;20494;-72
2023/08/30 05:31:53;;;;;;;6.00;3.63;;;17.70;99.90;;;;;;5013059;28;20038;-71
2023/08/30 05:34:18;;;;;;;4.43;2.85;;;17.70;99.90;;;;;;5005723;28;20018;-71
2023/08/30 05:36:44;;;;;;;5.28;3.03;;;17.80;99.90;;;;;;4989160;28;20092;-72
2023/08/30 05:39:10;;;;;;;5.15;2.90;;;17.90;99.90;;;;;;5003025;28;20295;-72
2023/08/30 05:41:35;;;;;;;4.40;2.70;;;17.90;99.90;;;;;;4985287;28;20443;-72
2023/08/30 05:44:01;;;;;;;3.47;2.35;;;17.90;99.90;;;;;;4988776;28;20030;-71
2023/08/30 05:46:26;;;;;;;4.47;3.92;;;17.90;99.90;;;;;;4993004;28;20117;-71
2023/08/30 05:48:53;;;;;;;4.47;2.80;;;17.90;99.90;;;;;;4990429;28;20074;-71
2023/08/30 05:51:20;;;;;;;4.97;2.35;;;18.00;99.90;;;;;;4989991;28;20125;-72
2023/08/30 05:53:45;;;;;;;4.78;2.60;;;18.00;99.90;;;;;;4990475;28;20097;-71
2023/08/30 05:56:11;;;;;;;6.80;2.90;;;18.00;99.90;;;;;;4992999;28;20113;-71
2023/08/30 05:58:37;;;;;;;5.10;3.05;;;18.10;99.90;;;;;;4992984;28;20408;-71
2023/08/30 06:01:06;;;;;;;4.50;2.45;;;18.00;99.90;;;;;;4991503;28;20026;-70
2023/08/30 06:03:31;;;;;;;2.88;2.17;;;18.10;99.90;;;;;;4995037;28;20022;-72
2023/08/30 06:05:57;;;;;;;6.95;2.80;;;18.10;99.90;;;;;;4997038;28;20076;-71
2023/08/30 06:08:23;;;;;;;4.50;2.67;;;18.10;99.90;;;;;;4998524;28;20068;-71
2023/08/30 06:10:48;;;;;;;5.72;3.22;;;18.10;99.90;;;;;;4995618;28;20038;-70
2023/08/30 06:13:14;;;;;;;6.45;3.22;;;18.00;99.90;;;;;;4993038;28;20472;-71
2023/08/30 06:15:40;;;;;;;4.45;3.83;;;17.90;99.90;;;;;;4997853;28;20041;-71
2023/08/30 06:18:05;;;;;;;4.40;3.90;;;17.90;99.90;;;;;;4995971;28;20037;-71
2023/08/30 06:20:31;;;;;;;5.07;3.63;;;17.80;99.90;;;;;;4996549;28;20038;-71
2023/08/30 06:23:03;;;;;;;3.42;2.88;;;17.80;99.90;;;;;;4994770;28;20022;-71
2023/08/30 06:25:29;;;;;;;3.80;2.72;;;17.80;99.90;;;;;;4997398;28;20026;-72
2023/08/30 06:27:59;;;;;;;5.05;2.90;;;17.80;99.90;;;;;;4995374;28;20022;-72
2023/08/30 06:30:25;;;;;;;3.00;2.53;;;17.90;99.90;;;;;;4995040;28;20042;-71
2023/08/30 06:32:51;;;;;;;3.90;3.17;;;18.00;99.90;;;;;;4993148;28;20029;-72
2023/08/30 06:35:17;;;;;;;4.78;4.38;;;17.90;99.90;;;;;;4995341;28;20034;-71
2023/08/30 06:37:43;;;;;;;5.30;4.40;;;17.70;99.90;;;;;;4995479;28;20069;-72
2023/08/30 06:40:09;;;;;;;9.15;5.50;;;17.80;99.90;;;;;;4991283;28;20066;-71
2023/08/30 06:42:34;;;;;;;10.85;5.57;;;17.70;99.90;;;;;;4993829;28;20081;-71
2023/08/30 06:45:02;;;;;;;4.55;2.60;;;17.60;99.90;;;;;;4994005;28;20408;-71
2023/08/30 06:47:27;;;;;;;4.43;3.90;;;17.70;99.90;;;;;;4993281;28;20022;-71
2023/08/30 06:49:53;;;;;;;4.43;3.67;;;17.70;99.90;;;;;;4994345;28;20035;-71
2023/08/30 06:52:19;;;;;;;4.40;3.53;;;17.70;99.90;;;;;;4992834;28;20395;-71
2023/08/30 06:54:44;;;;;;;5.93;4.45;;;17.70;99.90;;;;;;4994944;28;20026;-72
2023/08/30 06:57:10;;;;;;;6.18;3.95;;;17.70;99.90;;;;;;4994256;28;20030;-71
2023/08/30 06:59:36;;;;;;;5.68;4.43;;;17.70;99.90;;;;;;4995956;28;20054;-72
2023/08/30 07:02:02;;;;;;;5.47;4.18;;;17.70;99.90;;;;;;4996070;28;20054;-71
2023/08/30 07:04:28;;;;;;;4.90;2.50;;;17.70;99.90;;;;;;4994141;28;20476;-72
2023/08/30 07:06:53;;;;;;;4.57;3.85;;;17.70;99.90;;;;;;4995462;28;20503;-72
2023/08/30 07:09:19;;;;;;;5.40;4.90;;;17.70;99.90;;;;;;4994795;28;20030;-70
2023/08/30 07:11:45;;;;;;;5.95;5.45;;;17.60;99.90;;;;;;4995353;28;20175;-72
2023/08/30 07:14:12;;;;;;;6.88;4.32;;;17.60;99.90;;;;;;4993674;28;20027;-72
2023/08/30 07:16:38;;;;;;;5.20;4.70;;;17.60;99.90;;;;;;4999722;28;20038;-71
2023/08/30 07:19:03;;;;;;;5.55;5.05;;;17.50;99.90;;;;;;4981131;28;20473;-72
2023/08/30 07:21:29;;;;;;;5.53;4.97;;;17.50;99.90;;;;;;4976035;28;20046;-72
2023/08/30 07:23:54;;;;;;;6.97;5.30;;;17.50;99.90;;;;;;4974964;28;20097;-72
2023/08/30 07:26:20;;;;;;;6.05;5.30;;;17.50;99.90;;;;;;4974562;28;20035;-71
2023/08/30 07:28:46;;;;;;;5.85;5.28;;;17.50;99.90;;;;;;4972153;28;20022;-71
2023/08/30 07:31:15;;;;;;;7.18;5.30;;;17.40;99.90;;;;;;4974368;28;20039;-71
2023/08/30 07:33:41;;;;;;;5.63;5.07;;;17.40;99.90;;;;;;4974563;28;20035;-71
2023/08/30 07:36:08;;;;;;;6.47;4.82;;;17.40;99.90;;;;;;4978989;28;20033;-71
2023/08/30 07:38:34;;;;;;;7.55;5.60;;;17.40;99.90;;;;;;4978050;28;20023;-71
2023/08/30 07:41:01;;;;;;;5.45;4.97;;;17.40;99.90;;;;;;4974396;28;20026;-71
2023/08/30 07:43:26;;;;;;;9.10;5.75;;;17.40;99.90;;;;;;4974056;28;20018;-72
2023/08/30 07:45:52;;;;;;;6.80;5.28;;;17.40;99.90;;;;;;4982967;28;20040;-71
2023/08/30 07:48:18;;;;;;;6.05;4.80;;;17.50;99.90;;;;;;4975401;28;20498;-71
2023/08/30 07:50:43;;;;;;;5.00;4.60;;;17.50;99.90;;;;;;4974326;28;20082;-71
2023/08/30 07:53:10;;;;;;;5.93;5.43;;;17.50;99.90;;;;;;4961781;28;20547;-71
2023/08/30 07:55:36;;;;;;;5.80;5.25;;;17.50;99.90;;;;;;4955279;28;20030;-71
2023/08/30 07:58:02;;;;;;;7.68;5.50;;;17.50;99.90;;;;;;4973921;28;20388;-72
2023/08/30 08:00:29;;;;;;;5.93;5.43;;;17.50;99.90;;;;;;4972692;28;20031;-71
2023/08/30 08:02:54;;;;;;;6.25;5.45;;;17.50;99.90;;;;;;4975442;28;20085;-71
2023/08/30 08:05:20;;;;;;;6.00;5.50;;;17.50;99.90;;;;;;4975265;28;20464;-72
2023/08/30 08:07:50;;;;;;;6.68;6.15;;;17.60;99.90;;;;;;4972631;28;20530;-71
2023/08/30 08:10:15;;;;;;;7.25;6.18;;;17.60;99.90;;;;;;4973700;28;20428;-72
2023/08/30 08:12:41;;;;;;;6.20;5.60;;;17.70;99.90;;;;;;4973245;28;20468;-72
2023/08/30 08:15:07;;;;;;;5.97;5.45;;;17.70;99.90;;;;;;4972986;28;20031;-71
2023/08/30 08:17:33;;;;;;;7.57;5.50;;;17.70;99.90;;;;;;4976221;28;20023;-72
2023/08/30 08:19:58;;;;;;;6.53;5.03;;;17.70;99.90;;;;;;4992319;28;20062;-72
2023/08/30 08:22:24;;;;;;;4.80;4.35;;;17.80;99.90;;;;;;5002636;28;20077;-71
2023/08/30 08:24:51;;;;;;;7.22;5.13;;;17.80;99.90;;;;;;4990074;28;20037;-72
2023/08/30 08:27:17;;;;;;;10.25;3.95;;;17.90;99.90;;;;;;4992515;28;20033;-72
2023/08/30 08:29:43;;;;;;;5.72;5.22;;;18.00;99.90;;;;;;4993797;28;20035;-73
2023/08/30 08:32:09;;;;;;;4.85;3.90;;;18.10;99.90;;;;;;4992728;28;20487;-72
2023/08/30 08:34:35;;;;;;;3.95;2.90;;;18.10;99.90;;;;;;4994610;28;20033;-72
2023/08/30 08:37:00;;;;;;;4.38;3.53;;;18.10;99.90;;;;;;4983193;28;20026;-72
2023/08/30 08:39:26;;;;;;;5.70;3.92;;;18.10;99.90;;;;;;4992203;28;20029;-72
2023/08/30 08:41:53;;;;;;;6.38;5.65;;;18.20;99.90;;;;;;4990110;28;20030;-72
2023/08/30 08:44:19;;;;;;;8.80;5.18;;;18.20;99.90;;;;;;4991105;28;20112;-71
2023/08/30 08:46:47;;;;;;;7.03;6.30;;;18.20;99.90;;;;;;4993340;28;20468;-72
2023/08/30 08:49:19;;;;;;;7.82;5.65;;;18.20;99.90;;;;;;4995511;28;20026;-72
2023/08/30 08:51:46;;;;;;;6.43;5.88;;;18.30;99.90;;;;;;5004438;28;20030;-72
2023/08/30 08:54:12;;;;;;;8.25;7.07;;;18.30;99.90;;;;;;4996318;28;20030;-73
2023/08/30 08:56:39;;;;;;;7.57;6.65;;;18.30;99.90;;;;;;4998149;28;20412;-72
2023/08/30 08:59:06;;;;;;;5.13;4.55;;;18.30;99.90;;;;;;4993267;28;20045;-72
2023/08/30 09:01:35;;;;;;;7.82;7.03;;;18.40;99.90;;;;;;4982016;28;20157;-73
2023/08/30 09:04:08;;;;;;;10.70;9.50;;;18.40;99.90;;;;;;4993208;28;20467;-72
2023/08/30 09:06:39;;;;;;;11.10;9.90;;;18.40;99.90;;;;;;4984605;28;20054;-72
2023/08/30 09:09:05;;;;;;;9.68;8.77;;;18.40;99.90;;;;;;4995374;28;20030;-71
2023/08/30 09:11:31;;;;;;;9.48;8.48;;;18.50;99.90;;;;;;4993629;28;20515;-72
2023/08/30 09:13:57;;;;;;;8.70;8.00;;;18.50;99.90;;;;;;4999430;28;20045;-71
2023/08/30 09:16:23;;;;;;;8.15;7.40;;;18.50;99.90;;;;;;4991110;28;20092;-71
2023/08/30 09:19:00;;;;;;;9.40;7.18;;;18.50;99.90;;;;;;4991286;28;20046;-70
2023/08/30 09:21:27;;;;;;;7.13;6.43;;;18.60;99.90;;;;;;4991912;28;20490;-71
2023/08/30 09:24:01;;;;;;;7.97;6.85;;;18.60;99.90;;;;;;4991514;28;20492;-70
2023/08/30 09:26:33;;;;;;;6.93;6.10;;;18.60;99.90;;;;;;4991998;28;20031;-71
2023/08/30 09:29:05;;;;;;;;;;;18.60;99.90;;;;;;4994613;28;20029;-71
2023/08/30 09:31:35;;;;;;;6.30;4.45;;;18.70;99.90;;;;;;4989821;28;19917;-71
2023/08/30 09:34:02;;;;;;;4.65;3.10;;;18.70;99.90;;;;;;4987467;28;20096;-71
2023/08/30 09:36:40;;;;;;;5.13;2.40;;;18.70;99.90;;;;;;4989914;28;20034;-72
2023/08/30 09:39:11;;;;;;;5.65;2.75;;;18.70;99.90;;;;;;4988200;28;20023;-71
2023/08/30 09:41:48;;;;;;;11.18;3.58;;;18.70;99.90;;;;;;4987000;28;20124;-72
2023/08/30 09:44:15;;;;;;;6.22;3.00;;;18.80;99.90;;;;;;4986616;28;20511;-71
2023/08/30 09:46:50;;;;;;;7.10;2.55;;;18.80;99.90;;;;;;4986915;28;20100;-71
2023/08/30 09:49:20;;;;;;;4.63;2.85;;;18.80;99.90;;;;;;4989385;28;20165;-72
2023/08/30 09:51:48;;;;;;;3.67;2.25;;;18.90;99.90;;;;;;4989056;28;20108;-72
2023/08/30 09:54:18;;;;;;;5.72;2.55;;;18.90;99.90;;;;;;4989098;28;20053;-72
2023/08/30 09:56:45;;;;;;;7.35;2.63;;;19.00;99.90;;;;;;4990347;28;20034;-70
2023/08/30 09:59:12;;;;;;;5.20;2.50;;;19.00;99.90;;;;;;4989049;28;20525;-69
2023/08/30 10:01:39;;;;;;;5.47;2.17;;;19.00;99.90;;;;;;4988558;28;20034;-74
2023/08/30 10:04:08;;;;;;;5.13;2.08;;;19.00;99.90;;;;;;4987324;28;20038;-72
2023/08/30 10:06:33;;;;;;;5.88;2.70;;;19.10;99.90;;;;;;4991097;28;20034;-73
2023/08/30 10:09:01;;;;;;;4.80;2.35;;;19.10;99.90;;;;;;4986013;28;20030;-74
2023/08/30 10:11:29;;;;;;;6.38;2.35;;;19.10;99.90;;;;;;4980872;28;20039;-74
2023/08/30 10:13:55;;;;;;;5.30;2.55;;;19.10;99.90;;;;;;4988865;28;20502;-75
2023/08/30 10:16:23;;;;;;;5.53;2.80;;;19.10;99.90;;;;;;4987803;28;20089;-75
2023/08/30 10:18:52;;;;;;;7.78;3.60;;;19.10;99.90;;;;;;4989721;28;20026;-75
2023/08/30 10:21:19;;;;;;;12.60;6.88;;;19.10;99.90;;;;;;4988585;28;20548;-79
2023/08/30 10:23:49;;;;;;;10.93;5.97;;;19.10;99.90;;;;;;4986956;28;20023;-77
2023/08/30 10:26:16;;;;;;;17.05;8.73;;;19.20;99.90;;;;;;4989065;28;20033;-75
2023/08/30 10:28:42;;;;;;;10.32;4.60;;;19.20;99.90;;;;;;4991837;28;20027;-76
2023/08/30 10:31:08;;;;;;;16.35;7.57;;;19.20;99.90;;;;;;4989963;28;20495;-74
2023/08/30 10:33:53;;;;;;;22.20;11.38;;;19.20;99.90;;;;;;4989733;28;20046;-73
2023/08/30 10:36:26;;;;;;;12.45;4.70;;;19.30;99.90;;;;;;4984203;28;20110;-72
2023/08/30 10:38:53;;;;;;;9.80;4.28;;;19.30;99.90;;;;;;4992307;28;20137;-72
2023/08/30 10:41:26;;;;;;;21.58;12.80;;;19.20;99.90;;;;;;5006592;28;20101;-74
2023/08/30 10:43:55;;;;;;;15.70;7.95;;;19.30;99.90;;;;;;4989298;28;20088;-73
2023/08/30 10:46:34;;;;;;;13.25;8.30;;;19.30;99.90;;;;;;4992430;28;20077;-74
2023/08/30 10:49:15;;;;;;;19.30;9.32;;;19.30;99.90;;;;;;4994336;28;20027;-74
2023/08/30 10:51:41;;;;;;;17.50;11.25;;;19.40;99.90;;;;;;5003340;28;20121;-74
2023/08/30 10:54:17;;;;;;;12.45;6.18;;;19.40;99.90;;;;;;5014619;28;20559;-72
2023/08/30 10:56:47;;;;;;;14.02;6.97;;;19.40;99.90;;;;;;4994199;28;20030;-74
2023/08/30 10:59:20;;;;;;;6.82;3.25;;;19.40;99.90;;;;;;4993177;28;20036;-73
2023/08/30 11:01:50;;;;;;;9.55;3.38;;;19.50;99.90;;;;;;4992065;28;20027;-75
2023/08/30 11:04:17;;;;;;;9.68;3.05;;;19.40;99.90;;;;;;4991993;28;20113;-75
2023/08/30 11:06:45;;;;;;;6.80;3.00;;;19.50;99.90;;;;;;4988308;28;20026;-76
2023/08/30 11:09:17;;;;;;;10.52;3.42;;;19.50;99.50;;;;;;4992996;28;20025;-75
2023/08/30 11:11:43;;;;;;;7.68;2.63;;;19.40;99.90;;;;;;5009216;28;20045;-75
2023/08/30 11:14:09;;;;;;;6.05;2.40;;;19.50;99.00;;;;;;5011565;28;20070;-75
2023/08/30 11:16:36;;;;;;;8.80;2.60;;;19.50;99.30;;;;;;5014178;28;20021;-77
2023/08/30 11:19:03;;;;;;;7.18;2.13;;;19.50;99.30;;;;;;4981310;28;20029;-75
2023/08/30 11:21:31;;;;;;;8.02;2.22;;;19.50;98.60;;;;;;4996912;28;20495;-74
2023/08/30 11:23:56;;;;;;;5.53;2.08;;;19.50;98.40;;;;;;4998557;28;20057;-75
2023/08/30 11:26:23;;;;;;;7.40;2.08;;;19.50;97.60;;;;;;4995104;28;20058;-75
2023/08/30 11:28:51;;;;;;;7.45;2.13;;;19.60;98.00;;;;;;4991483;28;20039;-76
2023/08/30 11:31:27;;;;;;;5.95;2.28;;;19.60;98.20;;;;;;4992068;28;20161;-73
2023/08/30 11:33:55;;;;;;;6.72;1.88;;;19.60;98.00;;;;;;4986979;28;20026;-72
2023/08/30 11:36:22;;;;;;;5.85;1.90;;;19.60;97.70;;;;;;4991282;28;20105;-73
2023/08/30 11:38:52;;;;;;;6.38;1.90;;;19.70;98.00;;;;;;4996662;28;20030;-74
2023/08/30 11:41:20;;;;;;;8.75;1.92;;;19.70;97.70;;;;;;4993058;28;20026;-74
2023/08/30 11:43:47;;;;;;;5.38;2.00;;;19.70;97.60;;;;;;4992431;28;20030;-73
2023/08/30 11:46:12;;;;;;;6.55;2.10;;;19.70;97.50;;;;;;5013387;28;20026;-75
2023/08/30 11:48:52;;;;;;;7.15;1.90;;;19.70;97.60;;;;;;5001613;28;20530;-75
2023/08/30 11:51:18;;;;;;;8.20;2.05;;;19.70;97.30;;;;;;4991921;28;20050;-74
2023/08/30 11:53:45;;;;;;;6.03;1.92;;;19.70;97.30;;;;;;4991800;28;20029;-75
2023/08/30 11:56:11;;;;;;;6.15;2.08;;;19.70;97.40;;;;;;5001423;28;20034;-73
2023/08/30 11:58:37;;;;;;;6.32;1.60;;;19.80;97.30;;;;;;4989550;28;20027;-73
2023/08/30 12:01:07;;;;;;;6.32;1.80;;;19.80;97.20;;;;;;4992418;28;20484;-74
2023/08/30 12:03:33;;;;;;;10.98;2.28;;;19.90;97.00;;;;;;4989059;28;20531;-73
2023/08/30 12:05:59;;;;;;;8.18;1.83;;;19.90;97.20;;;;;;4991413;28;20061;-73
2023/08/30 12:08:27;;;;;;;6.78;1.75;;;19.90;96.80;;;;;;4985376;28;20022;-73
2023/08/30 12:10:53;;;;;;;7.65;1.75;;;19.90;97.00;;;;;;4988809;28;20030;-73
2023/08/30 12:13:23;;;;;;;5.30;1.30;;;19.90;97.20;;;;;;4992847;28;20121;-74
2023/08/30 12:15:51;;;;;;;6.70;1.73;;;19.90;96.60;;;;;;4992131;28;20105;-75
2023/08/30 12:18:20;;;;;;;5.40;1.50;;;20.00;97.10;;;;;;5005880;28;20060;-75
2023/08/30 12:20:53;;;;;;;6.18;1.60;;;20.00;97.20;;;;;;4994645;28;20026;-74
2023/08/30 12:23:25;;;;;;;5.57;1.70;;;20.00;97.40;;;;;;4990312;28;20054;-76
2023/08/30 12:26:07;;;;;;;4.55;1.30;;;20.00;96.90;;;;;;4989655;28;20030;-76
2023/08/30 12:28:35;;;;;;;5.82;1.55;;;20.10;96.60;;;;;;4988779;28;20168;-75
2023/08/30 12:31:04;;;;;;;5.65;1.52;;;20.10;96.40;;;;;;4991502;28;20048;-77
2023/08/30 12:33:30;;;;;;;7.32;1.65;;;20.10;96.40;;;;;;4990588;28;20027;-76
2023/08/30 12:35:56;;;;;;;6.53;1.85;;;20.00;96.40;;;;;;4995770;28;20064;-73
2023/08/30 12:38:23;;;;;;;7.28;1.63;;;20.10;96.40;;;;;;4986454;28;20030;-73
2023/08/30 12:40:51;;;;;;;7.70;1.65;;;20.10;96.70;;;;;;4989680;28;20026;-73
2023/08/30 12:43:18;;;;;;;5.05;1.38;;;20.10;96.60;;;;;;4992400;28;20117;-74
2023/08/30 12:45:44;;;;;;;6.78;1.75;;;20.10;96.80;;;;;;4990173;28;20037;-74